sensor_id;sensor_type;location;lat;lon;timestamp;pressure;altitude;pressure_sealevel;temperature;humidity
26781;BME280;14366;49.184;8.054;2023-10-19T00:40:30;97429.78;;;11.84;85.70
26781;BME280;14366;49.184;8.054;2023-10-19T01:08:28;97405.31;;;12.04;86.45
26781;BME280;14366;49.184;8.054;2023-10-19T01:13:51;97403.00;;;12.07;86.19
26781;BME280;14366;49.184;8.054;2023-10-19T01:51:45;97373.75;;;12.47;90.18
26781;BME280;14366;49.184;8.054;2023-10-19T02:08:17;97346.69;;;12.72;91.08
26781;BME280;14366;49.184;8.054;2023-10-19T02:30:42;97333.97;;;12.91;92.68
26781;BME280;14366;49.184;8.054;2023-10-19T02:41:54;97323.59;;;13.06;92.62
26781;BME280;14366;49.184;8.054;2023-10-19T02:47:29;97330.41;;;13.08;92.51
26781;BME280;14366;49.184;8.054;2023-10-19T03:04:02;97303.00;;;13.23;94.32
26781;BME280;14366;49.184;8.054;2023-10-19T03:20:50;97288.28;;;13.01;94.26
26781;BME280;14366;49.184;8.054;2023-10-19T03:32:04;97278.50;;;13.18;94.75
26781;BME280;14366;49.184;8.054;2023-10-19T03:37:39;97277.66;;;13.18;93.37
26781;BME280;14366;49.184;8.054;2023-10-19T03:48:36;97263.78;;;13.14;94.02
26781;BME280;14366;49.184;8.054;2023-10-19T04:10:17;97247.56;;;13.14;94.98
26781;BME280;14366;49.184;8.054;2023-10-19T04:15:49;97238.22;;;13.10;95.47
26781;BME280;14366;49.184;8.054;2023-10-19T04:31:50;97233.72;;;13.04;94.54
26781;BME280;14366;49.184;8.054;2023-10-19T04:59:36;97208.19;;;12.88;93.28
26781;BME280;14366;49.184;8.054;2023-10-19T05:04:56;97209.34;;;12.81;92.80
26781;BME280;14366;49.184;8.054;2023-10-19T05:16:07;97207.06;;;12.78;93.26
26781;BME280;14366;49.184;8.054;2023-10-19T05:21:27;97214.44;;;12.71;93.49
26781;BME280;14366;49.184;8.054;2023-10-19T05:32:23;97215.12;;;12.66;94.92
26781;BME280;14366;49.184;8.054;2023-10-19T05:37:44;97208.06;;;12.65;94.53
26781;BME280;14366;49.184;8.054;2023-10-19T05:48:40;97212.06;;;12.62;95.53
26781;BME280;14366;49.184;8.054;2023-10-19T05:54:00;97210.78;;;12.65;95.53
26781;BME280;14366;49.184;8.054;2023-10-19T06:04:58;97207.59;;;12.68;95.13
26781;BME280;14366;49.184;8.054;2023-10-19T06:21:30;97205.44;;;12.77;94.67
26781;BME280;14366;49.184;8.054;2023-10-19T06:43:34;97200.75;;;12.84;93.83
26781;BME280;14366;49.184;8.054;2023-10-19T07:11:18;97204.50;;;13.13;94.36
26781;BME280;14366;49.184;8.054;2023-10-19T07:33:25;97198.19;;;13.19;93.41
26781;BME280;14366;49.184;8.054;2023-10-19T07:44:36;97206.91;;;13.21;93.81
26781;BME280;14366;49.184;8.054;2023-10-19T08:01:23;97210.09;;;13.29;93.71
26781;BME280;14366;49.184;8.054;2023-10-19T08:06:58;97197.50;;;13.35;93.95
26781;BME280;14366;49.184;8.054;2023-10-19T08:18:09;97200.56;;;13.50;93.92
26781;BME280;14366;49.184;8.054;2023-10-19T08:23:44;97207.38;;;13.52;93.95
26781;BME280;14366;49.184;8.054;2023-10-19T08:51:26;97174.56;;;13.84;94.85
26781;BME280;14366;49.184;8.054;2023-10-19T08:57:01;97165.34;;;13.96;95.02
26781;BME280;14366;49.184;8.054;2023-10-19T09:07:58;97169.44;;;14.11;95.06
26781;BME280;14366;49.184;8.054;2023-10-19T09:24:27;97143.03;;;14.18;96.32
26781;BME280;14366;49.184;8.054;2023-10-19T09:41:00;97160.09;;;14.41;95.85
26781;BME280;14366;49.184;8.054;2023-10-19T10:14:56;97147.84;;;14.67;97.08
26781;BME280;14366;49.184;8.054;2023-10-19T10:20:31;97143.84;;;14.70;96.63
26781;BME280;14366;49.184;8.054;2023-10-19T10:25:53;97140.63;;;14.73;97.45
26781;BME280;14366;49.184;8.054;2023-10-19T10:31:29;97136.13;;;14.78;96.03
26781;BME280;14366;49.184;8.054;2023-10-19T10:37:05;97135.31;;;14.78;96.92
26781;BME280;14366;49.184;8.054;2023-10-19T10:42:41;97137.19;;;14.77;96.74
26781;BME280;14366;49.184;8.054;2023-10-19T10:48:17;97144.28;;;14.78;97.20
26781;BME280;14366;49.184;8.054;2023-10-19T10:53:52;97126.50;;;14.87;97.60
26781;BME280;14366;49.184;8.054;2023-10-19T10:59:28;97122.00;;;14.93;96.89
26781;BME280;14366;49.184;8.054;2023-10-19T11:05:02;97115.00;;;14.97;97.16
26781;BME280;14366;49.184;8.054;2023-10-19T11:10:37;97109.12;;;15.00;96.88
26781;BME280;14366;49.184;8.054;2023-10-19T11:16:21;97102.13;;;15.04;96.14
26781;BME280;14366;49.184;8.054;2023-10-19T11:21:52;97104.00;;;15.04;97.12
26781;BME280;14366;49.184;8.054;2023-10-19T11:27:26;97093.16;;;15.04;96.65
26781;BME280;14366;49.184;8.054;2023-10-19T11:33:03;97094.63;;;14.95;97.45
26781;BME280;14366;49.184;8.054;2023-10-19T11:38:36;97095.19;;;14.97;97.38
26781;BME280;14366;49.184;8.054;2023-10-19T11:43:55;97091.75;;;15.01;98.28
26781;BME280;14366;49.184;8.054;2023-10-19T11:49:17;97087.75;;;15.04;98.13
26781;BME280;14366;49.184;8.054;2023-10-19T11:54:51;97096.19;;;15.07;97.56
26781;BME280;14366;49.184;8.054;2023-10-19T12:10:56;97090.03;;;15.28;98.76
26781;BME280;14366;49.184;8.054;2023-10-19T12:16:36;97080.72;;;15.41;98.50
26781;BME280;14366;49.184;8.054;2023-10-19T12:21:56;97091.66;;;15.46;97.52
26781;BME280;14366;49.184;8.054;2023-10-19T12:50:00;97073.44;;;15.63;98.85
26781;BME280;14366;49.184;8.054;2023-10-19T13:11:52;97057.53;;;15.72;99.76
26781;BME280;14366;49.184;8.054;2023-10-19T13:44:24;96987.72;;;15.94;100.00
26781;BME280;14366;49.184;8.054;2023-10-19T13:49:45;96943.78;;;16.02;100.00
26781;BME280;14366;49.184;8.054;2023-10-19T14:17:27;96955.88;;;15.90;100.00
26781;BME280;14366;49.184;8.054;2023-10-19T14:39:05;96877.13;;;16.21;100.00
26781;BME280;14366;49.184;8.054;2023-10-19T15:06:35;96858.47;;;16.03;100.00
26781;BME280;14366;49.184;8.054;2023-10-19T15:11:55;96847.06;;;16.01;100.00
26781;BME280;14366;49.184;8.054;2023-10-19T15:17:31;96815.53;;;16.00;100.00
26781;BME280;14366;49.184;8.054;2023-10-19T15:23:06;96816.34;;;16.01;100.00
26781;BME280;14366;49.184;8.054;2023-10-19T15:33:32;96823.63;;;15.95;100.00
26781;BME280;14366;49.184;8.054;2023-10-19T15:44:11;96811.66;;;15.91;100.00
26781;BME280;14366;49.184;8.054;2023-10-19T15:49:32;96816.47;;;15.84;100.00
26781;BME280;14366;49.184;8.054;2023-10-19T15:55:08;96826.53;;;15.84;100.00
26781;BME280;14366;49.184;8.054;2023-10-19T16:00:43;96816.47;;;15.84;100.00
26781;BME280;14366;49.184;8.054;2023-10-19T16:06:04;96795.53;;;15.85;100.00
26781;BME280;14366;49.184;8.054;2023-10-19T16:11:37;96785.00;;;15.88;100.00
26781;BME280;14366;49.184;8.054;2023-10-19T16:16:54;96784.72;;;15.90;100.00
26781;BME280;14366;49.184;8.054;2023-10-19T16:22:15;96799.13;;;15.90;100.00
26781;BME280;14366;49.184;8.054;2023-10-19T16:27:50;96795.88;;;15.93;100.00
26781;BME280;14366;49.184;8.054;2023-10-19T16:33:11;96802.91;;;15.89;100.00
26781;BME280;14366;49.184;8.054;2023-10-19T16:38:47;96806.75;;;15.88;100.00
26781;BME280;14366;49.184;8.054;2023-10-19T16:44:22;96814.31;;;15.86;100.00
26781;BME280;14366;49.184;8.054;2023-10-19T16:49:57;96828.97;;;15.85;100.00
26781;BME280;14366;49.184;8.054;2023-10-19T16:55:34;96843.13;;;15.87;100.00
26781;BME280;14366;49.184;8.054;2023-10-19T17:01:08;96845.56;;;15.89;100.00
26781;BME280;14366;49.184;8.054;2023-10-19T17:06:41;96841.78;;;15.90;100.00
26781;BME280;14366;49.184;8.054;2023-10-19T17:12:18;96836.88;;;15.87;100.00
26781;BME280;14366;49.184;8.054;2023-10-19T17:22:56;96832.22;;;15.82;100.00
26781;BME280;14366;49.184;8.054;2023-10-19T17:28:33;96844.16;;;15.81;100.00
26781;BME280;14366;49.184;8.054;2023-10-19T17:34:08;96840.56;;;15.75;100.00
26781;BME280;14366;49.184;8.054;2023-10-19T17:44:47;96810.72;;;15.81;100.00
26781;BME280;14366;49.184;8.054;2023-10-19T17:50:24;96796.03;;;15.76;100.00
26781;BME280;14366;49.184;8.054;2023-10-19T17:55:58;96806.87;;;15.76;100.00
26781;BME280;14366;49.184;8.054;2023-10-19T18:01:20;96794.94;;;15.77;100.00
26781;BME280;14366;49.184;8.054;2023-10-19T18:06:55;96797.09;;;15.75;100.00
26781;BME280;14366;49.184;8.054;2023-10-19T18:12:15;96776.72;;;15.73;100.00
26781;BME280;14366;49.184;8.054;2023-10-19T18:17:53;96768.56;;;15.73;100.00
26781;BME280;14366;49.184;8.054;2023-10-19T18:23:28;96766.38;;;15.70;100.00
26781;BME280;14366;49.184;8.054;2023-10-19T18:28:49;96745.16;;;15.67;100.00
26781;BME280;14366;49.184;8.054;2023-10-19T18:34:11;96725.88;;;15.68;100.00
26781;BME280;14366;49.184;8.054;2023-10-19T18:39:46;96717.75;;;15.68;100.00
26781;BME280;14366;49.184;8.054;2023-10-19T18:45:07;96715.81;;;15.64;100.00
26781;BME280;14366;49.184;8.054;2023-10-19T18:50:29;96724.78;;;15.64;100.00
26781;BME280;14366;49.184;8.054;2023-10-19T19:01:08;96700.09;;;15.66;100.00
26781;BME280;14366;49.184;8.054;2023-10-19T19:06:30;96715.56;;;15.65;100.00
26781;BME280;14366;49.184;8.054;2023-10-19T19:17:09;96729.34;;;15.59;100.00
26781;BME280;14366;49.184;8.054;2023-10-19T19:27:51;96733.66;;;15.55;100.00
26781;BME280;14366;49.184;8.054;2023-10-19T19:33:26;96731.47;;;15.52;100.00
26781;BME280;14366;49.184;8.054;2023-10-19T19:39:02;96733.09;;;15.53;100.00
26781;BME280;14366;49.184;8.054;2023-10-19T19:44:23;96726.91;;;15.57;100.00
26781;BME280;14366;49.184;8.054;2023-10-19T19:49:58;96707.06;;;15.57;100.00
26781;BME280;14366;49.184;8.054;2023-10-19T19:55:18;96704.91;;;15.59;100.00
26781;BME280;14366;49.184;8.054;2023-10-19T20:00:39;96682.69;;;15.62;100.00
26781;BME280;14366;49.184;8.054;2023-10-19T20:06:14;96670.16;;;15.61;100.00
26781;BME280;14366;49.184;8.054;2023-10-19T20:11:34;96689.19;;;15.61;100.00
26781;BME280;14366;49.184;8.054;2023-10-19T20:17:11;96686.47;;;15.61;100.00
26781;BME280;14366;49.184;8.054;2023-10-19T20:22:46;96687.00;;;15.63;100.00
26781;BME280;14366;49.184;8.054;2023-10-19T20:28:07;96670.16;;;15.61;100.00
26781;BME280;14366;49.184;8.054;2023-10-19T20:33:29;96646.81;;;15.60;100.00
26781;BME280;14366;49.184;8.054;2023-10-19T20:39:04;96620.69;;;15.54;100.00
26781;BME280;14366;49.184;8.054;2023-10-19T20:44:24;96619.91;;;15.53;100.00
26781;BME280;14366;49.184;8.054;2023-10-19T20:49:45;96610.09;;;15.52;100.00
26781;BME280;14366;49.184;8.054;2023-10-19T20:55:18;96602.13;;;15.46;100.00
26781;BME280;14366;49.184;8.054;2023-10-19T21:00:38;96603.53;;;15.48;100.00
26781;BME280;14366;49.184;8.054;2023-10-19T21:05:59;96610.94;;;15.53;100.00
26781;BME280;14366;49.184;8.054;2023-10-19T21:11:34;96583.44;;;15.49;100.00
26781;BME280;14366;49.184;8.054;2023-10-19T21:17:10;96564.41;;;15.49;100.00
26781;BME280;14366;49.184;8.054;2023-10-19T21:22:46;96563.94;;;15.52;100.00
26781;BME280;14366;49.184;8.054;2023-10-19T21:28:20;96565.59;;;15.53;100.00
26781;BME280;14366;49.184;8.054;2023-10-19T21:33:40;96542.22;;;15.52;100.00
26781;BME280;14366;49.184;8.054;2023-10-19T21:39:17;96523.75;;;15.54;100.00
26781;BME280;14366;49.184;8.054;2023-10-19T21:44:53;96527.59;;;15.53;100.00
26781;BME280;14366;49.184;8.054;2023-10-19T21:50:28;96509.38;;;15.54;100.00
26781;BME280;14366;49.184;8.054;2023-10-19T21:55:51;96521.88;;;15.55;100.00
26781;BME280;14366;49.184;8.054;2023-10-19T22:01:25;96503.69;;;15.55;100.00
26781;BME280;14366;49.184;8.054;2023-10-19T22:06:45;96503.16;;;15.58;100.00
26781;BME280;14366;49.184;8.054;2023-10-19T22:12:06;96481.44;;;15.58;100.00
26781;BME280;14366;49.184;8.054;2023-10-19T22:17:42;96468.94;;;15.57;100.00
26781;BME280;14366;49.184;8.054;2023-10-19T22:23:17;96465.94;;;15.54;100.00
26781;BME280;14366;49.184;8.054;2023-10-19T22:28:38;96452.91;;;15.56;100.00
26781;BME280;14366;49.184;8.054;2023-10-19T22:34:14;96432.84;;;15.57;100.00
26781;BME280;14366;49.184;8.054;2023-10-19T22:39:34;96423.88;;;15.56;100.00
26781;BME280;14366;49.184;8.054;2023-10-19T22:45:10;96398.06;;;15.54;100.00
26781;BME280;14366;49.184;8.054;2023-10-19T22:50:46;96388.31;;;15.53;100.00
26781;BME280;14366;49.184;8.054;2023-10-19T22:56:06;96383.13;;;15.51;100.00
26781;BME280;14366;49.184;8.054;2023-10-19T23:01:43;96385.53;;;15.48;100.00
26781;BME280;14366;49.184;8.054;2023-10-19T23:07:18;96385.84;;;15.51;100.00
26781;BME280;14366;49.184;8.054;2023-10-19T23:12:53;96389.88;;;15.44;100.00
26781;BME280;14366;49.184;8.054;2023-10-19T23:18:27;96373.59;;;15.49;100.00
26781;BME280;14366;49.184;8.054;2023-10-19T23:24:04;96384.75;;;15.52;100.00
26781;BME280;14366;49.184;8.054;2023-10-19T23:29:24;96371.72;;;15.54;100.00
26781;BME280;14366;49.184;8.054;2023-10-19T23:35:04;96357.63;;;15.57;100.00
26781;BME280;14366;49.184;8.054;2023-10-19T23:40:35;96347.31;;;15.59;100.00
26781;BME280;14366;49.184;8.054;2023-10-19T23:45:56;96339.41;;;15.58;100.00
26781;BME280;14366;49.184;8.054;2023-10-19T23:51:19;96343.25;;;15.62;100.00
26781;BME280;14366;49.184;8.054;2023-10-19T23:56:53;96332.09;;;15.58;100.00
